Time;durP1;ratioP1;P1;durP2;ratioP2;P2;SDS_P1;SDS_P2;PMS_P1;PMS_P2;Temp;Humidity;BMP_temperature;BMP_pressure;BME280_temperature;BME280_humidity;BME280_pressure;Samples;Min_cycle;Max_cycle;Signal;HPM_P1;HPM_P2
2021/11/02 00:00:21;;;;;;;7.40;3.37;;;;;;;6.62;97.52;99940.16;5096179;28;20028;-36
2021/11/02 00:02:47;;;;;;;7.07;3.23;;;;;;;6.63;97.45;99940.97;5096152;28;20028;-36
2021/11/02 00:05:13;;;;;;;9.65;3.72;;;;;;;6.64;96.81;99938.06;5096007;28;20402;-36
2021/11/02 00:07:39;;;;;;;9.23;3.30;;;;;;;6.56;96.82;99935.69;5112073;28;20036;-36
2021/11/02 00:10:06;;;;;;;7.38;3.72;;;;;;;6.59;97.08;99929.88;5095654;28;20479;-36
2021/11/02 00:12:31;;;;;;;8.32;3.50;;;;;;;6.56;97.76;99932.19;5095951;28;20028;-36
2021/11/02 00:14:57;;;;;;;5.57;3.17;;;;;;;6.51;97.50;99918.63;5095498;28;20024;-36
2021/11/02 00:17:25;;;;;;;7.43;2.90;;;;;;;6.55;97.30;99930.56;5095859;28;20024;-36
2021/11/02 00:19:58;;;;;;;5.50;2.65;;;;;;;6.41;97.63;99933.41;5095947;28;20016;-36
2021/11/02 00:22:26;;;;;;;7.60;3.30;;;;;;;6.47;97.33;99939.72;5095999;28;20024;-36
2021/11/02 00:27:21;;;;;;;8.90;4.32;;;;;;;6.37;98.10;99945.63;5096137;28;20039;-36
2021/11/02 00:29:46;;;;;;;10.07;3.53;;;;;;;6.37;98.46;99945.63;5095462;28;20162;-36
2021/11/02 00:32:12;;;;;;;7.00;3.93;;;;;;;6.35;97.71;99939.69;5095797;28;20055;-36
2021/11/02 00:34:37;;;;;;;7.33;3.50;;;;;;;6.32;98.25;99950.03;5095641;28;20107;-36
2021/11/02 00:37:02;;;;;;;7.43;3.50;;;;;;;6.24;98.21;99932.38;5095462;28;20027;-36
2021/11/02 00:39:28;;;;;;;8.13;3.57;;;;;;;6.28;97.80;99927.38;5095145;28;20016;-36
2021/11/02 00:41:53;;;;;;;6.67;3.10;;;;;;;6.17;98.05;99926.25;5095636;28;20028;-36
2021/11/02 00:44:21;;;;;;;7.85;3.53;;;;;;;6.11;97.92;99914.56;5095336;28;20156;-36
2021/11/02 00:46:47;;;;;;;7.25;3.55;;;;;;;6.14;97.71;99935.56;5095490;28;20036;-36
2021/11/02 00:49:21;;;;;;;7.35;3.45;;;;;;;6.12;97.82;99934.16;5095051;28;20062;-36
2021/11/02 00:51:47;;;;;;;6.45;3.22;;;;;;;6.08;98.15;99930.28;5095075;28;20058;-36
2021/11/02 00:54:13;;;;;;;8.15;3.72;;;;;;;5.98;97.08;99930.81;5095064;28;20119;-36
2021/11/02 00:56:39;;;;;;;4.95;2.70;;;;;;;6.07;97.64;99934.84;5095065;28;20436;-36
2021/11/02 00:59:04;;;;;;;;;;;;;;;6.17;96.77;99931.63;5094608;28;20024;-36
2021/11/02 01:01:30;;;;;;;10.50;3.30;;;;;;;6.05;98.07;99933.41;5094874;28;19911;-36
2021/11/02 01:03:55;;;;;;;7.17;3.30;;;;;;;5.94;97.91;99929.59;5094885;28;20262;-36
2021/11/02 01:06:21;;;;;;;7.47;3.07;;;;;;;6.07;98.04;99944.75;5095061;28;20035;-36
2021/11/02 01:08:46;;;;;;;7.47;3.80;;;;;;;5.99;98.23;99947.72;5094991;28;20162;-36
2021/11/02 01:11:11;;;;;;;7.87;3.67;;;;;;;5.98;97.98;99941.53;5095211;28;20024;-36
2021/11/02 01:13:37;;;;;;;9.40;3.90;;;;;;;5.90;98.63;99944.47;5094751;28;20032;-36
2021/11/02 01:16:03;;;;;;;6.43;3.20;;;;;;;5.91;98.93;99941.63;5095248;28;20020;-36
2021/11/02 01:18:28;;;;;;;7.10;3.50;;;;;;;5.90;98.86;99939.97;5094711;28;20031;-36
2021/11/02 01:20:53;;;;;;;7.50;3.80;;;;;;;5.85;98.44;99937.09;5094800;28;20103;-36
2021/11/02 01:23:19;;;;;;;5.47;2.83;;;;;;;5.99;98.73;99937.00;5095285;28;20020;-36
2021/11/02 01:25:45;;;;;;;8.32;3.90;;;;;;;5.90;99.12;99939.97;5094265;28;20266;-36
2021/11/02 01:28:10;;;;;;;7.72;3.60;;;;;;;5.92;99.26;99945.13;5094668;28;20038;-36
2021/11/02 01:30:36;;;;;;;12.17;3.83;;;;;;;5.93;99.08;99950.25;5094107;28;20012;-36
2021/11/02 01:33:02;;;;;;;8.23;3.75;;;;;;;5.82;98.40;99942.91;5094312;28;20020;-36
2021/11/02 01:35:28;;;;;;;10.43;4.15;;;;;;;5.77;98.50;99928.53;5095007;28;20031;-36
2021/11/02 01:37:54;;;;;;;8.43;4.43;;;;;;;5.80;99.53;99944.16;5094449;28;20070;-36
2021/11/02 01:40:20;;;;;;;11.45;4.20;;;;;;;5.72;99.80;99929.19;5094199;28;20428;-36
2021/11/02 01:42:50;;;;;;;8.65;4.60;;;;;;;5.84;100.00;99946.19;5094449;28;20055;-36
2021/11/02 01:45:16;;;;;;;10.60;4.88;;;;;;;5.77;99.91;99936.59;5094041;28;20020;-36
2021/11/02 01:47:46;;;;;;;7.47;4.47;;;;;;;5.69;100.00;99917.03;5094885;28;20149;-36
2021/11/02 01:50:13;;;;;;;13.35;4.90;;;;;;;5.84;100.00;99945.38;5094037;28;20012;-36
2021/11/02 01:52:40;;;;;;;6.35;4.15;;;;;;;5.83;100.00;99941.88;5093839;28;20019;-36
2021/11/02 01:55:07;;;;;;;10.07;4.43;;;;;;;5.87;100.00;99940.41;5093927;28;20024;-36
2021/11/02 01:57:32;;;;;;;8.80;4.07;;;;;;;5.80;100.00;99926.22;5093563;28;20017;-36
2021/11/02 01:59:58;;;;;;;9.43;3.95;;;;;;;5.79;100.00;99927.25;5093537;28;20047;-36
2021/11/02 02:02:42;;;;;;;9.27;4.27;;;;;;;5.82;100.00;99918.78;5094350;28;20020;-36
2021/11/02 02:05:17;;;;;;;9.43;4.15;;;;;;;5.81;100.00;99927.88;5093697;28;20311;-36
2021/11/02 02:08:09;;;;;;;8.27;4.60;;;;;;;5.86;100.00;99933.38;5094303;28;20027;-36
2021/11/02 02:10:46;;;;;;;9.38;4.60;;;;;;;5.85;100.00;99931.72;5093976;28;20059;-36
2021/11/02 02:13:24;;;;;;;7.70;3.97;;;;;;;5.87;100.00;99926.97;5093842;28;20043;-36
2021/11/02 02:16:14;;;;;;;7.50;3.50;;;;;;;5.85;100.00;99931.72;5093904;28;20020;-36
2021/11/02 02:18:51;;;;;;;7.32;3.88;;;;;;;5.87;100.00;99934.22;5093564;28;20046;-36
2021/11/02 02:21:32;;;;;;;8.60;4.20;;;;;;;5.87;100.00;99929.66;5093267;28;20055;-36
2021/11/02 02:24:12;;;;;;;11.13;4.47;;;;;;;5.86;100.00;99929.88;5093984;28;20050;-36
2021/11/02 02:26:47;;;;;;;8.38;4.00;;;;;;;5.82;100.00;99929.50;5093796;28;20043;-36
2021/11/02 02:29:13;;;;;;;7.97;4.22;;;;;;;5.83;100.00;99922.28;5093683;28;20028;-36
2021/11/02 02:31:40;;;;;;;;;;;;;;;5.90;100.00;99920.31;5094026;28;20055;-36
2021/11/02 02:34:11;;;;;;;6.60;3.80;;;;;;;5.73;100.00;99901.31;5093707;28;19914;-36
2021/11/02 02:36:38;;;;;;;7.57;3.72;;;;;;;5.82;100.00;99916.09;5093557;28;20108;-36
2021/11/02 02:39:04;;;;;;;;;;;;;;;5.89;100.00;99916.00;5093540;28;20016;-36
2021/11/02 02:41:30;;;;;;;7.70;3.53;;;;;;;5.76;99.76;99911.63;5093240;28;19908;-36
2021/11/02 02:43:56;;;;;;;8.60;3.72;;;;;;;5.67;100.00;99886.13;5093485;28;20472;-36
2021/11/02 02:46:22;;;;;;;5.90;3.73;;;;;;;5.78;100.00;99904.16;5092942;28;20058;-36
2021/11/02 02:48:49;;;;;;;5.55;3.67;;;;;;;5.78;100.00;99906.84;5093253;28;20319;-36
2021/11/02 02:51:17;;;;;;;7.68;4.00;;;;;;;5.80;100.00;99898.56;5093087;28;20081;-36
2021/11/02 02:53:44;;;;;;;6.25;4.25;;;;;;;5.66;100.00;99884.47;5092885;28;20528;-36
2021/11/02 02:56:11;;;;;;;8.73;4.85;;;;;;;5.79;100.00;99896.94;5092905;28;20016;-36
2021/11/02 02:58:40;;;;;;;6.90;4.35;;;;;;;5.75;100.00;99895.72;5093412;28;20421;-36
2021/11/02 03:01:09;;;;;;;9.27;4.10;;;;;;;5.76;100.00;99898.22;5093066;28;20045;-36
2021/11/02 03:03:36;;;;;;;5.68;3.97;;;;;;;5.72;100.00;99890.81;5093078;28;20024;-36
2021/11/02 03:06:03;;;;;;;10.10;4.38;;;;;;;5.74;100.00;99897.59;5093061;28;20024;-36
2021/11/02 03:08:29;;;;;;;8.45;4.07;;;;;;;5.76;100.00;99895.53;5093169;28;20016;-36
2021/11/02 03:10:55;;;;;;;7.20;4.15;;;;;;;5.64;100.00;99881.19;5092949;28;20106;-36
2021/11/02 03:13:24;;;;;;;10.60;4.32;;;;;;;5.77;100.00;99902.53;5092928;28;20012;-36
2021/11/02 03:48:47;;;;;;;10.07;4.07;;;;;;;5.70;100.00;99901.75;5096479;28;20043;-36
2021/11/02 03:57:00;;;;;;;6.70;3.50;;;;;;;5.75;100.00;99893.84;5096918;28;20058;-37
2021/11/02 04:00:07;;;;;;;10.23;4.35;;;;;;;5.78;100.00;99897.97;5096451;28;20110;-37
2021/11/02 04:28:15;;;;;;;9.05;3.50;;;;;;;5.70;100.00;99909.81;5095898;28;20048;-37
2021/11/02 05:19:41;;;;;;;4.60;2.50;;;;;;;5.80;100.00;99920.03;5052245;28;20439;-37
2021/11/02 05:57:45;;;;;;;6.68;2.60;;;;;;;5.85;100.00;99912.13;5093656;28;20032;-36
2021/11/02 06:00:17;;;;;;;4.82;2.45;;;;;;;5.84;100.00;99916.69;5094647;28;20395;-36
2021/11/02 06:03:14;;;;;;;4.65;2.42;;;;;;;5.87;100.00;99910.88;5094167;28;20028;-36
2021/11/02 06:23:21;;;;;;;7.53;2.75;;;;;;;5.75;100.00;99883.13;5094194;28;20035;-36
2021/11/02 06:30:08;;;;;;;7.40;2.88;;;;;;;5.81;100.00;99909.09;5093640;28;20371;-36
2021/11/02 06:32:37;;;;;;;6.05;3.50;;;;;;;5.71;100.00;99892.69;5093427;28;20024;-37
2021/11/02 06:35:27;;;;;;;4.85;3.17;;;;;;;5.75;100.00;99906.47;5093419;28;20024;-36
2021/11/02 06:43:51;;;;;;;8.93;3.58;;;;;;;5.83;100.00;99917.72;5093226;28;20499;-36
2021/11/02 07:19:31;;;;;;;5.90;2.95;;;;;;;6.02;100.00;99933.88;5097099;28;20024;-35
